메인 페이지
METAR-TAF:

METAR-TAF

공항 :

시애틀 터코마 국제공항

시애틀 / 터코마, 워싱턴, 미국

위도: 47-26-41N, 경도: 122-18-49W, 고도: 130m

현재 날씨관측

예보는 30분 전, 06:53시(UTC)에 발표되었습니다.
남남동5kt
온도 9°C
습도 81%
기압 1021 hPa
시정: 16.1km
고도 7000ft 상공 구름 조금
고도 20000ft 상공 구름 조금

METAR: KSEA 210653Z 16005KT 10SM FEW070 FEW200 09/06 A3016 RMK AO2 SLP220 T00890056

시각: 00:23 (07:23 UTC)

예보

예보는 2 시간 3분 전, 05:20시(UTC)에 발표되었습니다.
예보 대상 시간: 21일 06시부터 22일 12시까지 (UTC)
kt
시정: 10km
맑음
21일 0900시부터 (UTC)
6kt
시정: 10km
고도 1200ft 상공 구름 보통
고도 4000ft 상공 구름 많음
일시적
21일 09시부터 21일 12시까지 (UTC)
고도 1200ft 상공 구름 많음
고도 4000ft 상공 구름 많음
21일 1200시부터 (UTC)
6kt
시정: 10km
고도 1200ft 상공 구름 많음
21일 1800시부터 (UTC)
남남서6kt
시정: 10km
고도 2000ft 상공 구름 보통
고도 15000ft 상공 구름 보통
22일 0300시부터 (UTC)
남남서8kt
시정: 10km
고도 5000ft 상공 구름 보통
고도 15000ft 상공 구름 많음
22일 1000시부터 (UTC)
10kt
시정: 10km
고도 5000ft 상공 구름 많음
고도 12000ft 상공 흐림

TAF: KSEA 210520Z 2106/2212 00000KT P6SM SKC FM210900 18006KT P6SM SCT012 BKN040 TEMPO 2109/2112 BKN012 BKN040 FM211200 18006KT P6SM BKN012 FM211800 21006KT P6SM SCT020 SCT150 FM220300 21008KT P6SM SCT050 BKN150 FM221000 18010KT P6SM BKN050 OVC120

4,000개 이상의 공항 관측 자료 및 예보 (METAR 및 TAF 보고).

지도상에서 검색 가능한 기상관측소가 노란 점과 빨간 점으로 표시되어 있습니다.

기상관측소 명을 보려면 표시 위로 마우스를 이동하세요.

날씨 관측과 예보를 보려면 클릭하세요.

지도 변경 : 확대하려면 엑스 표시가 있는 녹색 버튼, 축소하려면 빼기 표시가 있는 녹색 버튼, 다음 페이지의 지도를 보려면 녹색 화살표를 클릭하세요.


METAR-TAF: